sensor_id;sensor_type;location;lat;lon;timestamp;temperature;humidity
12726;DHT22;6427;49.754;6.106;2022-09-27T00:00:43;11.20;99.90
12726;DHT22;6427;49.754;6.106;2022-09-27T00:03:11;11.20;99.90
12726;DHT22;6427;49.754;6.106;2022-09-27T00:05:38;11.10;99.90
12726;DHT22;6427;49.754;6.106;2022-09-27T00:08:07;11.10;99.90
12726;DHT22;6427;49.754;6.106;2022-09-27T00:10:34;11.10;99.90
12726;DHT22;6427;49.754;6.106;2022-09-27T00:13:02;11.10;99.90
12726;DHT22;6427;49.754;6.106;2022-09-27T00:15:29;11.00;99.90
12726;DHT22;6427;49.754;6.106;2022-09-27T00:17:57;11.00;99.90
12726;DHT22;6427;49.754;6.106;2022-09-27T00:20:24;11.00;99.90
12726;DHT22;6427;49.754;6.106;2022-09-27T00:22:52;11.00;99.90
12726;DHT22;6427;49.754;6.106;2022-09-27T00:25:19;11.00;99.90
12726;DHT22;6427;49.754;6.106;2022-09-27T00:27:47;10.90;99.90
12726;DHT22;6427;49.754;6.106;2022-09-27T00:30:14;10.90;99.90
12726;DHT22;6427;49.754;6.106;2022-09-27T00:32:42;10.90;99.90
12726;DHT22;6427;49.754;6.106;2022-09-27T00:35:10;10.90;99.90
12726;DHT22;6427;49.754;6.106;2022-09-27T00:37:38;10.80;99.90
12726;DHT22;6427;49.754;6.106;2022-09-27T00:40:05;10.80;99.90
12726;DHT22;6427;49.754;6.106;2022-09-27T00:42:33;10.80;99.90
12726;DHT22;6427;49.754;6.106;2022-09-27T00:45:05;10.80;99.90
12726;DHT22;6427;49.754;6.106;2022-09-27T00:47:35;10.70;99.90
12726;DHT22;6427;49.754;6.106;2022-09-27T00:50:11;10.70;99.90
12726;DHT22;6427;49.754;6.106;2022-09-27T00:52:44;10.70;99.90
12726;DHT22;6427;49.754;6.106;2022-09-27T00:55:22;10.60;99.90
12726;DHT22;6427;49.754;6.106;2022-09-27T00:57:43;10.60;99.90
12726;DHT22;6427;49.754;6.106;2022-09-27T01:00:11;10.60;99.90
12726;DHT22;6427;49.754;6.106;2022-09-27T01:02:39;10.60;99.90
12726;DHT22;6427;49.754;6.106;2022-09-27T01:05:06;10.60;99.90
12726;DHT22;6427;49.754;6.106;2022-09-27T01:07:34;10.60;99.90
12726;DHT22;6427;49.754;6.106;2022-09-27T01:10:02;10.50;99.90
12726;DHT22;6427;49.754;6.106;2022-09-27T01:12:50;10.50;99.90
12726;DHT22;6427;49.754;6.106;2022-09-27T01:18:16;10.50;99.90
12726;DHT22;6427;49.754;6.106;2022-09-27T01:23:35;10.40;99.90
12726;DHT22;6427;49.754;6.106;2022-09-27T01:28:55;10.40;99.90
12726;DHT22;6427;49.754;6.106;2022-09-27T01:31:27;10.30;99.90
12726;DHT22;6427;49.754;6.106;2022-09-27T01:34:17;10.30;99.90
12726;DHT22;6427;49.754;6.106;2022-09-27T01:36:56;10.30;99.90
12726;DHT22;6427;49.754;6.106;2022-09-27T01:42:13;10.10;99.90
12726;DHT22;6427;49.754;6.106;2022-09-27T01:44:57;10.10;99.90
12726;DHT22;6427;49.754;6.106;2022-09-27T01:47:22;10.10;99.90
12726;DHT22;6427;49.754;6.106;2022-09-27T01:50:05;10.00;99.90
12726;DHT22;6427;49.754;6.106;2022-09-27T01:52:36;10.00;99.90
12726;DHT22;6427;49.754;6.106;2022-09-27T01:55:02;10.00;99.90
12726;DHT22;6427;49.754;6.106;2022-09-27T01:57:36;10.00;99.90
12726;DHT22;6427;49.754;6.106;2022-09-27T02:00:07;10.00;99.90
12726;DHT22;6427;49.754;6.106;2022-09-27T02:02:35;10.00;99.90
12726;DHT22;6427;49.754;6.106;2022-09-27T02:05:01;10.00;99.90
12726;DHT22;6427;49.754;6.106;2022-09-27T02:07:34;10.00;99.90
12726;DHT22;6427;49.754;6.106;2022-09-27T02:10:00;10.00;99.90
12726;DHT22;6427;49.754;6.106;2022-09-27T02:12:29;10.00;99.90
12726;DHT22;6427;49.754;6.106;2022-09-27T02:14:59;10.00;99.90
12726;DHT22;6427;49.754;6.106;2022-09-27T02:17:46;10.00;99.90
12726;DHT22;6427;49.754;6.106;2022-09-27T02:20:30;10.00;99.90
12726;DHT22;6427;49.754;6.106;2022-09-27T02:28:26;10.00;99.90
12726;DHT22;6427;49.754;6.106;2022-09-27T02:30:54;10.00;99.90
12726;DHT22;6427;49.754;6.106;2022-09-27T02:33:22;10.00;99.90
12726;DHT22;6427;49.754;6.106;2022-09-27T02:35:48;10.00;99.90
12726;DHT22;6427;49.754;6.106;2022-09-27T02:38:17;10.00;99.90
12726;DHT22;6427;49.754;6.106;2022-09-27T02:40:45;10.00;99.90
12726;DHT22;6427;49.754;6.106;2022-09-27T02:43:12;10.10;99.90
12726;DHT22;6427;49.754;6.106;2022-09-27T02:46:12;10.30;99.90
12726;DHT22;6427;49.754;6.106;2022-09-27T02:48:50;10.30;99.90
12726;DHT22;6427;49.754;6.106;2022-09-27T02:53:52;10.40;99.90
12726;DHT22;6427;49.754;6.106;2022-09-27T02:56:23;10.70;99.90
12726;DHT22;6427;49.754;6.106;2022-09-27T03:04:14;10.40;99.90
12726;DHT22;6427;49.754;6.106;2022-09-27T03:06:38;10.50;99.90
12726;DHT22;6427;49.754;6.106;2022-09-27T03:09:12;10.70;99.90
12726;DHT22;6427;49.754;6.106;2022-09-27T03:11:33;10.80;99.90
12726;DHT22;6427;49.754;6.106;2022-09-27T03:14:01;10.70;99.90
12726;DHT22;6427;49.754;6.106;2022-09-27T03:16:28;10.70;99.90
12726;DHT22;6427;49.754;6.106;2022-09-27T03:18:56;10.50;99.90
12726;DHT22;6427;49.754;6.106;2022-09-27T03:21:23;10.40;99.90
12726;DHT22;6427;49.754;6.106;2022-09-27T03:23:51;10.30;99.90
12726;DHT22;6427;49.754;6.106;2022-09-27T03:26:18;10.30;99.90
12726;DHT22;6427;49.754;6.106;2022-09-27T03:28:46;10.20;99.90
12726;DHT22;6427;49.754;6.106;2022-09-27T03:31:14;10.10;99.90
12726;DHT22;6427;49.754;6.106;2022-09-27T03:33:42;10.30;99.90
12726;DHT22;6427;49.754;6.106;2022-09-27T03:36:10;10.20;99.90
12726;DHT22;6427;49.754;6.106;2022-09-27T03:38:38;10.10;99.90
12726;DHT22;6427;49.754;6.106;2022-09-27T03:41:05;10.10;99.90
12726;DHT22;6427;49.754;6.106;2022-09-27T03:43:34;10.00;99.90
12726;DHT22;6427;49.754;6.106;2022-09-27T03:46:01;10.00;99.90
12726;DHT22;6427;49.754;6.106;2022-09-27T03:48:29;9.90;99.90
12726;DHT22;6427;49.754;6.106;2022-09-27T03:50:56;9.90;99.90
12726;DHT22;6427;49.754;6.106;2022-09-27T03:53:25;9.90;99.90
12726;DHT22;6427;49.754;6.106;2022-09-27T03:55:52;9.80;99.90
12726;DHT22;6427;49.754;6.106;2022-09-27T03:58:20;9.80;99.90
12726;DHT22;6427;49.754;6.106;2022-09-27T04:00:48;9.80;99.90
12726;DHT22;6427;49.754;6.106;2022-09-27T04:03:16;9.80;99.90
12726;DHT22;6427;49.754;6.106;2022-09-27T04:05:43;9.70;99.90
12726;DHT22;6427;49.754;6.106;2022-09-27T04:08:11;9.70;99.90
12726;DHT22;6427;49.754;6.106;2022-09-27T04:10:40;9.70;99.90
12726;DHT22;6427;49.754;6.106;2022-09-27T04:13:07;9.70;99.90
12726;DHT22;6427;49.754;6.106;2022-09-27T04:15:35;9.70;99.90
12726;DHT22;6427;49.754;6.106;2022-09-27T04:18:02;9.70;99.90
12726;DHT22;6427;49.754;6.106;2022-09-27T04:20:31;9.70;99.90
12726;DHT22;6427;49.754;6.106;2022-09-27T04:22:58;9.70;99.90
12726;DHT22;6427;49.754;6.106;2022-09-27T04:25:27;9.70;99.90
12726;DHT22;6427;49.754;6.106;2022-09-27T04:27:55;9.70;99.90
12726;DHT22;6427;49.754;6.106;2022-09-27T04:30:23;9.80;99.90
12726;DHT22;6427;49.754;6.106;2022-09-27T04:32:51;9.70;99.90
12726;DHT22;6427;49.754;6.106;2022-09-27T04:35:18;9.80;99.90
12726;DHT22;6427;49.754;6.106;2022-09-27T04:38:04;9.80;99.90
12726;DHT22;6427;49.754;6.106;2022-09-27T04:40:34;9.70;99.90
12726;DHT22;6427;49.754;6.106;2022-09-27T04:43:02;9.90;99.90
12726;DHT22;6427;49.754;6.106;2022-09-27T04:45:30;9.80;99.90
12726;DHT22;6427;49.754;6.106;2022-09-27T04:47:58;9.80;99.90
12726;DHT22;6427;49.754;6.106;2022-09-27T04:50:26;9.70;99.90
12726;DHT22;6427;49.754;6.106;2022-09-27T04:52:53;9.70;99.90
12726;DHT22;6427;49.754;6.106;2022-09-27T04:55:21;9.70;99.90
12726;DHT22;6427;49.754;6.106;2022-09-27T04:57:49;9.60;99.90
12726;DHT22;6427;49.754;6.106;2022-09-27T05:00:17;9.60;99.90
12726;DHT22;6427;49.754;6.106;2022-09-27T05:02:45;9.60;99.90
12726;DHT22;6427;49.754;6.106;2022-09-27T05:05:12;9.60;99.90
12726;DHT22;6427;49.754;6.106;2022-09-27T05:07:40;9.60;99.90
12726;DHT22;6427;49.754;6.106;2022-09-27T05:10:07;9.60;99.90
12726;DHT22;6427;49.754;6.106;2022-09-27T05:12:35;9.60;99.90
12726;DHT22;6427;49.754;6.106;2022-09-27T05:15:03;9.80;99.90
12726;DHT22;6427;49.754;6.106;2022-09-27T05:17:31;9.80;99.90
12726;DHT22;6427;49.754;6.106;2022-09-27T05:19:58;9.80;99.90
12726;DHT22;6427;49.754;6.106;2022-09-27T05:22:26;9.80;99.90
12726;DHT22;6427;49.754;6.106;2022-09-27T05:24:55;9.70;99.90
12726;DHT22;6427;49.754;6.106;2022-09-27T05:27:22;9.70;99.90
12726;DHT22;6427;49.754;6.106;2022-09-27T05:29:50;9.70;99.90
12726;DHT22;6427;49.754;6.106;2022-09-27T05:32:17;9.70;99.90
12726;DHT22;6427;49.754;6.106;2022-09-27T05:34:45;9.70;99.90
12726;DHT22;6427;49.754;6.106;2022-09-27T05:37:12;9.70;99.90
12726;DHT22;6427;49.754;6.106;2022-09-27T05:39:41;9.90;99.90
12726;DHT22;6427;49.754;6.106;2022-09-27T05:42:09;9.90;99.90
12726;DHT22;6427;49.754;6.106;2022-09-27T05:44:37;9.80;99.90
12726;DHT22;6427;49.754;6.106;2022-09-27T05:47:04;9.80;99.90
12726;DHT22;6427;49.754;6.106;2022-09-27T05:49:32;9.80;99.90
12726;DHT22;6427;49.754;6.106;2022-09-27T05:51:59;9.80;99.90
12726;DHT22;6427;49.754;6.106;2022-09-27T05:54:27;9.70;99.90
12726;DHT22;6427;49.754;6.106;2022-09-27T05:56:55;9.70;99.90
12726;DHT22;6427;49.754;6.106;2022-09-27T05:59:23;9.70;99.90
12726;DHT22;6427;49.754;6.106;2022-09-27T06:01:50;9.70;99.90
12726;DHT22;6427;49.754;6.106;2022-09-27T06:04:18;9.70;99.90
12726;DHT22;6427;49.754;6.106;2022-09-27T06:06:45;9.70;99.90
12726;DHT22;6427;49.754;6.106;2022-09-27T06:09:13;9.70;99.90
12726;DHT22;6427;49.754;6.106;2022-09-27T06:11:41;9.60;99.90
12726;DHT22;6427;49.754;6.106;2022-09-27T06:14:08;9.60;99.90
12726;DHT22;6427;49.754;6.106;2022-09-27T06:16:35;9.70;99.90
12726;DHT22;6427;49.754;6.106;2022-09-27T06:19:03;9.70;99.90
12726;DHT22;6427;49.754;6.106;2022-09-27T06:21:31;9.70;99.90
12726;DHT22;6427;49.754;6.106;2022-09-27T06:23:59;9.70;99.90
12726;DHT22;6427;49.754;6.106;2022-09-27T06:26:27;9.80;99.90
12726;DHT22;6427;49.754;6.106;2022-09-27T06:28:55;9.80;99.90
12726;DHT22;6427;49.754;6.106;2022-09-27T06:31:23;9.90;99.90
12726;DHT22;6427;49.754;6.106;2022-09-27T06:33:51;9.80;99.90
12726;DHT22;6427;49.754;6.106;2022-09-27T06:36:19;9.90;99.90
12726;DHT22;6427;49.754;6.106;2022-09-27T06:38:47;10.00;99.90
12726;DHT22;6427;49.754;6.106;2022-09-27T06:41:14;10.00;99.90
12726;DHT22;6427;49.754;6.106;2022-09-27T06:43:42;10.00;99.90
12726;DHT22;6427;49.754;6.106;2022-09-27T06:46:10;10.00;99.90
12726;DHT22;6427;49.754;6.106;2022-09-27T06:48:38;10.10;99.90
12726;DHT22;6427;49.754;6.106;2022-09-27T06:51:05;10.10;99.90
12726;DHT22;6427;49.754;6.106;2022-09-27T06:53:33;10.20;99.90
12726;DHT22;6427;49.754;6.106;2022-09-27T06:56:02;10.40;99.90
12726;DHT22;6427;49.754;6.106;2022-09-27T06:58:29;10.40;99.90
12726;DHT22;6427;49.754;6.106;2022-09-27T07:01:14;10.40;99.90
12726;DHT22;6427;49.754;6.106;2022-09-27T07:03:42;10.30;99.90
12726;DHT22;6427;49.754;6.106;2022-09-27T07:06:18;10.30;99.90
12726;DHT22;6427;49.754;6.106;2022-09-27T07:08:44;10.30;99.90
12726;DHT22;6427;49.754;6.106;2022-09-27T07:11:12;10.30;99.90
12726;DHT22;6427;49.754;6.106;2022-09-27T07:13:39;10.50;99.90
12726;DHT22;6427;49.754;6.106;2022-09-27T07:16:09;11.00;99.90
12726;DHT22;6427;49.754;6.106;2022-09-27T07:18:35;11.00;99.90
12726;DHT22;6427;49.754;6.106;2022-09-27T07:21:03;11.00;99.90
12726;DHT22;6427;49.754;6.106;2022-09-27T07:23:30;10.90;99.90
12726;DHT22;6427;49.754;6.106;2022-09-27T07:25:59;10.90;99.90
12726;DHT22;6427;49.754;6.106;2022-09-27T07:28:25;10.80;99.90
12726;DHT22;6427;49.754;6.106;2022-09-27T07:30:54;10.70;99.90
12726;DHT22;6427;49.754;6.106;2022-09-27T07:33:22;10.70;99.90
12726;DHT22;6427;49.754;6.106;2022-09-27T07:35:50;10.70;99.90
12726;DHT22;6427;49.754;6.106;2022-09-27T07:38:18;10.70;99.90
12726;DHT22;6427;49.754;6.106;2022-09-27T07:40:45;10.70;99.90
12726;DHT22;6427;49.754;6.106;2022-09-27T07:43:13;10.80;99.90
12726;DHT22;6427;49.754;6.106;2022-09-27T07:45:41;11.10;99.90
12726;DHT22;6427;49.754;6.106;2022-09-27T07:48:10;11.10;99.90
12726;DHT22;6427;49.754;6.106;2022-09-27T07:50:36;11.10;99.90
12726;DHT22;6427;49.754;6.106;2022-09-27T07:53:04;11.10;99.90
12726;DHT22;6427;49.754;6.106;2022-09-27T07:55:31;11.20;99.90
12726;DHT22;6427;49.754;6.106;2022-09-27T07:58:06;11.20;99.90
12726;DHT22;6427;49.754;6.106;2022-09-27T08:00:30;11.20;99.90
12726;DHT22;6427;49.754;6.106;2022-09-27T08:02:57;11.20;99.90
12726;DHT22;6427;49.754;6.106;2022-09-27T08:05:25;11.30;99.90
12726;DHT22;6427;49.754;6.106;2022-09-27T08:07:55;11.40;99.90
12726;DHT22;6427;49.754;6.106;2022-09-27T08:10:23;11.50;99.90
12726;DHT22;6427;49.754;6.106;2022-09-27T08:12:51;11.80;99.90
12726;DHT22;6427;49.754;6.106;2022-09-27T08:15:18;11.80;99.90
12726;DHT22;6427;49.754;6.106;2022-09-27T08:17:46;12.10;99.90
12726;DHT22;6427;49.754;6.106;2022-09-27T08:20:13;12.10;99.90
12726;DHT22;6427;49.754;6.106;2022-09-27T08:22:41;12.20;99.90
12726;DHT22;6427;49.754;6.106;2022-09-27T08:25:08;12.10;99.90
12726;DHT22;6427;49.754;6.106;2022-09-27T08:27:36;12.00;99.90
12726;DHT22;6427;49.754;6.106;2022-09-27T08:30:04;11.90;99.90
12726;DHT22;6427;49.754;6.106;2022-09-27T08:32:31;11.80;99.90
12726;DHT22;6427;49.754;6.106;2022-09-27T08:34:59;11.80;99.90
12726;DHT22;6427;49.754;6.106;2022-09-27T08:37:27;11.90;99.90
12726;DHT22;6427;49.754;6.106;2022-09-27T08:39:55;11.90;99.90
12726;DHT22;6427;49.754;6.106;2022-09-27T08:45:18;12.30;99.90
12726;DHT22;6427;49.754;6.106;2022-09-27T08:47:57;12.70;99.90
12726;DHT22;6427;49.754;6.106;2022-09-27T08:50:37;12.60;99.90
12726;DHT22;6427;49.754;6.106;2022-09-27T08:55:56;12.60;99.90
12726;DHT22;6427;49.754;6.106;2022-09-27T08:58:39;12.50;99.90
12726;DHT22;6427;49.754;6.106;2022-09-27T09:01:09;12.40;99.90
12726;DHT22;6427;49.754;6.106;2022-09-27T09:03:34;12.30;99.90
12726;DHT22;6427;49.754;6.106;2022-09-27T09:17:54;11.80;99.90
12726;DHT22;6427;49.754;6.106;2022-09-27T09:20:32;11.70;99.90
12726;DHT22;6427;49.754;6.106;2022-09-27T09:23:12;11.50;99.90
12726;DHT22;6427;49.754;6.106;2022-09-27T09:25:57;11.50;99.90
12726;DHT22;6427;49.754;6.106;2022-09-27T09:34:02;11.30;99.90
12726;DHT22;6427;49.754;6.106;2022-09-27T09:36:26;11.30;99.90
12726;DHT22;6427;49.754;6.106;2022-09-27T09:39:02;11.30;99.90
12726;DHT22;6427;49.754;6.106;2022-09-27T09:41:30;11.30;99.90
12726;DHT22;6427;49.754;6.106;2022-09-27T09:44:03;11.40;99.90
12726;DHT22;6427;49.754;6.106;2022-09-27T09:46:35;11.70;99.90
12726;DHT22;6427;49.754;6.106;2022-09-27T09:49:02;11.70;99.90
12726;DHT22;6427;49.754;6.106;2022-09-27T09:51:31;11.70;99.90
12726;DHT22;6427;49.754;6.106;2022-09-27T09:55:01;11.60;99.90
12726;DHT22;6427;49.754;6.106;2022-09-27T09:56:43;11.60;99.90
12726;DHT22;6427;49.754;6.106;2022-09-27T09:59:11;11.60;99.90
12726;DHT22;6427;49.754;6.106;2022-09-27T10:01:43;11.60;99.90
12726;DHT22;6427;49.754;6.106;2022-09-27T10:04:21;11.70;99.90
12726;DHT22;6427;49.754;6.106;2022-09-27T10:06:47;11.70;99.90
12726;DHT22;6427;49.754;6.106;2022-09-27T10:09:16;11.80;99.90
12726;DHT22;6427;49.754;6.106;2022-09-27T10:11:44;12.00;99.90
12726;DHT22;6427;49.754;6.106;2022-09-27T10:14:15;12.00;99.90
12726;DHT22;6427;49.754;6.106;2022-09-27T10:16:43;12.10;99.90
12726;DHT22;6427;49.754;6.106;2022-09-27T10:19:09;12.10;99.90
12726;DHT22;6427;49.754;6.106;2022-09-27T10:21:39;12.20;99.90
12726;DHT22;6427;49.754;6.106;2022-09-27T10:24:14;12.20;99.90
12726;DHT22;6427;49.754;6.106;2022-09-27T10:26:43;12.30;99.90
12726;DHT22;6427;49.754;6.106;2022-09-27T10:31:46;12.30;99.90
12726;DHT22;6427;49.754;6.106;2022-09-27T10:34:32;12.40;99.90
12726;DHT22;6427;49.754;6.106;2022-09-27T10:39:39;12.70;99.90
12726;DHT22;6427;49.754;6.106;2022-09-27T10:44:49;13.00;99.90
12726;DHT22;6427;49.754;6.106;2022-09-27T10:47:17;13.20;99.90
12726;DHT22;6427;49.754;6.106;2022-09-27T10:49:44;13.20;99.90
12726;DHT22;6427;49.754;6.106;2022-09-27T10:52:18;13.10;99.90
12726;DHT22;6427;49.754;6.106;2022-09-27T10:55:03;13.20;99.90
12726;DHT22;6427;49.754;6.106;2022-09-27T10:57:29;13.20;99.90
12726;DHT22;6427;49.754;6.106;2022-09-27T10:59:58;13.20;99.90
12726;DHT22;6427;49.754;6.106;2022-09-27T11:02:28;13.20;99.90
12726;DHT22;6427;49.754;6.106;2022-09-27T11:05:08;13.30;99.90
12726;DHT22;6427;49.754;6.106;2022-09-27T11:07:37;13.50;99.90
12726;DHT22;6427;49.754;6.106;2022-09-27T11:15:41;13.80;99.90
12726;DHT22;6427;49.754;6.106;2022-09-27T11:20:57;13.90;99.90
12726;DHT22;6427;49.754;6.106;2022-09-27T11:23:22;14.10;99.90
12726;DHT22;6427;49.754;6.106;2022-09-27T11:26:13;14.20;99.90
12726;DHT22;6427;49.754;6.106;2022-09-27T11:29:38;13.80;99.90
12726;DHT22;6427;49.754;6.106;2022-09-27T11:31:27;13.70;99.90
12726;DHT22;6427;49.754;6.106;2022-09-27T11:33:54;13.60;99.90
12726;DHT22;6427;49.754;6.106;2022-09-27T11:36:58;13.50;99.90
12726;DHT22;6427;49.754;6.106;2022-09-27T11:39:34;13.40;99.90
12726;DHT22;6427;49.754;6.106;2022-09-27T11:44:57;13.30;99.90
12726;DHT22;6427;49.754;6.106;2022-09-27T11:47:45;13.30;99.90
12726;DHT22;6427;49.754;6.106;2022-09-27T11:58:18;13.10;99.90
12726;DHT22;6427;49.754;6.106;2022-09-27T12:00:57;13.00;99.90
12726;DHT22;6427;49.754;6.106;2022-09-27T12:08:47;12.90;99.90
12726;DHT22;6427;49.754;6.106;2022-09-27T12:11:16;12.90;99.90
12726;DHT22;6427;49.754;6.106;2022-09-27T12:13:46;12.80;99.90
12726;DHT22;6427;49.754;6.106;2022-09-27T12:16:12;12.80;99.90
12726;DHT22;6427;49.754;6.106;2022-09-27T12:18:40;12.80;99.90
12726;DHT22;6427;49.754;6.106;2022-09-27T12:21:08;12.80;99.90
12726;DHT22;6427;49.754;6.106;2022-09-27T12:23:45;12.70;99.90
12726;DHT22;6427;49.754;6.106;2022-09-27T12:26:18;12.70;99.90
12726;DHT22;6427;49.754;6.106;2022-09-27T12:28:58;12.80;99.90
12726;DHT22;6427;49.754;6.106;2022-09-27T12:36:50;12.90;99.90
12726;DHT22;6427;49.754;6.106;2022-09-27T12:39:27;13.00;99.90
12726;DHT22;6427;49.754;6.106;2022-09-27T12:41:51;13.20;99.90
12726;DHT22;6427;49.754;6.106;2022-09-27T12:44:15;13.30;99.90
12726;DHT22;6427;49.754;6.106;2022-09-27T12:47:01;13.30;99.90
12726;DHT22;6427;49.754;6.106;2022-09-27T12:49:39;13.50;99.90
12726;DHT22;6427;49.754;6.106;2022-09-27T12:52:07;13.50;99.90
12726;DHT22;6427;49.754;6.106;2022-09-27T12:54:43;13.40;99.90
12726;DHT22;6427;49.754;6.106;2022-09-27T13:05:27;13.40;99.90
12726;DHT22;6427;49.754;6.106;2022-09-27T13:13:21;13.50;99.90
12726;DHT22;6427;49.754;6.106;2022-09-27T13:15:48;13.50;99.90
12726;DHT22;6427;49.754;6.106;2022-09-27T13:18:29;13.50;99.90
12726;DHT22;6427;49.754;6.106;2022-09-27T13:20:55;13.50;99.90
12726;DHT22;6427;49.754;6.106;2022-09-27T13:25:51;13.20;99.90
12726;DHT22;6427;49.754;6.106;2022-09-27T13:34:13;13.10;99.90
12726;DHT22;6427;49.754;6.106;2022-09-27T13:36:05;13.30;99.90
12726;DHT22;6427;49.754;6.106;2022-09-27T13:38:32;13.30;99.90
12726;DHT22;6427;49.754;6.106;2022-09-27T13:41:12;13.30;99.90
12726;DHT22;6427;49.754;6.106;2022-09-27T13:46:12;13.30;99.90
12726;DHT22;6427;49.754;6.106;2022-09-27T13:49:00;13.30;99.90
12726;DHT22;6427;49.754;6.106;2022-09-27T13:57:01;13.30;99.90
12726;DHT22;6427;49.754;6.106;2022-09-27T13:59:36;13.30;99.90
12726;DHT22;6427;49.754;6.106;2022-09-27T14:02:11;13.30;99.20
12726;DHT22;6427;49.754;6.106;2022-09-27T14:04:39;13.30;98.70
12726;DHT22;6427;49.754;6.106;2022-09-27T14:07:03;13.30;98.00
12726;DHT22;6427;49.754;6.106;2022-09-27T14:09:31;13.30;97.40
12726;DHT22;6427;49.754;6.106;2022-09-27T14:11:59;13.20;97.00
12726;DHT22;6427;49.754;6.106;2022-09-27T14:14:26;13.10;96.60
12726;DHT22;6427;49.754;6.106;2022-09-27T14:16:54;12.90;95.80
12726;DHT22;6427;49.754;6.106;2022-09-27T14:19:22;12.90;95.80
12726;DHT22;6427;49.754;6.106;2022-09-27T14:21:49;12.90;95.70
12726;DHT22;6427;49.754;6.106;2022-09-27T14:24:24;13.10;95.40
12726;DHT22;6427;49.754;6.106;2022-09-27T14:27:01;13.10;94.80
12726;DHT22;6427;49.754;6.106;2022-09-27T14:29:18;13.10;95.10
12726;DHT22;6427;49.754;6.106;2022-09-27T14:31:45;13.00;95.20
12726;DHT22;6427;49.754;6.106;2022-09-27T14:34:12;13.20;95.20
12726;DHT22;6427;49.754;6.106;2022-09-27T14:36:41;13.20;95.00
12726;DHT22;6427;49.754;6.106;2022-09-27T14:39:30;13.30;94.90
12726;DHT22;6427;49.754;6.106;2022-09-27T14:42:00;13.20;94.60
12726;DHT22;6427;49.754;6.106;2022-09-27T14:44:24;13.20;94.80
12726;DHT22;6427;49.754;6.106;2022-09-27T14:47:16;13.30;95.00
12726;DHT22;6427;49.754;6.106;2022-09-27T14:49:34;13.60;94.70
12726;DHT22;6427;49.754;6.106;2022-09-27T14:52:13;13.80;93.80
12726;DHT22;6427;49.754;6.106;2022-09-27T14:54:29;13.70;93.40
12726;DHT22;6427;49.754;6.106;2022-09-27T14:56:57;13.80;92.80
12726;DHT22;6427;49.754;6.106;2022-09-27T14:59:28;13.80;92.80
12726;DHT22;6427;49.754;6.106;2022-09-27T15:01:58;13.70;93.40
12726;DHT22;6427;49.754;6.106;2022-09-27T15:04:26;13.70;93.60
12726;DHT22;6427;49.754;6.106;2022-09-27T15:06:54;13.70;93.60
12726;DHT22;6427;49.754;6.106;2022-09-27T15:09:21;13.80;93.20
12726;DHT22;6427;49.754;6.106;2022-09-27T15:11:50;13.80;92.40
12726;DHT22;6427;49.754;6.106;2022-09-27T15:14:16;13.80;92.50
12726;DHT22;6427;49.754;6.106;2022-09-27T15:16:44;13.80;92.20
12726;DHT22;6427;49.754;6.106;2022-09-27T15:19:15;13.80;92.20
12726;DHT22;6427;49.754;6.106;2022-09-27T15:21:43;13.80;91.50
12726;DHT22;6427;49.754;6.106;2022-09-27T15:24:39;13.80;91.50
12726;DHT22;6427;49.754;6.106;2022-09-27T15:27:19;13.90;91.10
12726;DHT22;6427;49.754;6.106;2022-09-27T15:29:52;13.80;91.00
12726;DHT22;6427;49.754;6.106;2022-09-27T15:32:12;13.90;91.20
12726;DHT22;6427;49.754;6.106;2022-09-27T15:34:37;13.90;90.80
12726;DHT22;6427;49.754;6.106;2022-09-27T15:37:06;13.70;90.80
12726;DHT22;6427;49.754;6.106;2022-09-27T15:39:37;13.70;90.80
12726;DHT22;6427;49.754;6.106;2022-09-27T15:42:13;13.60;90.90
12726;DHT22;6427;49.754;6.106;2022-09-27T15:52:45;13.30;91.70
12726;DHT22;6427;49.754;6.106;2022-09-27T15:55:19;13.10;92.30
12726;DHT22;6427;49.754;6.106;2022-09-27T15:57:50;13.10;92.30
12726;DHT22;6427;49.754;6.106;2022-09-27T16:00:17;13.10;92.80
12726;DHT22;6427;49.754;6.106;2022-09-27T16:02:44;13.00;92.90
12726;DHT22;6427;49.754;6.106;2022-09-27T16:05:11;13.00;93.20
12726;DHT22;6427;49.754;6.106;2022-09-27T16:07:39;13.20;93.30
12726;DHT22;6427;49.754;6.106;2022-09-27T16:10:17;13.20;93.30
12726;DHT22;6427;49.754;6.106;2022-09-27T16:12:44;13.20;93.30
12726;DHT22;6427;49.754;6.106;2022-09-27T16:15:12;13.10;93.60
12726;DHT22;6427;49.754;6.106;2022-09-27T16:17:39;13.10;93.80
12726;DHT22;6427;49.754;6.106;2022-09-27T16:20:17;13.00;94.00
12726;DHT22;6427;49.754;6.106;2022-09-27T16:22:45;12.90;94.40
12726;DHT22;6427;49.754;6.106;2022-09-27T16:25:12;13.00;94.20
12726;DHT22;6427;49.754;6.106;2022-09-27T16:27:40;12.90;94.30
12726;DHT22;6427;49.754;6.106;2022-09-27T16:30:07;12.90;94.70
12726;DHT22;6427;49.754;6.106;2022-09-27T16:32:45;12.80;94.90
12726;DHT22;6427;49.754;6.106;2022-09-27T16:35:12;12.80;95.20
12726;DHT22;6427;49.754;6.106;2022-09-27T16:37:39;13.00;95.40
12726;DHT22;6427;49.754;6.106;2022-09-27T16:40:07;13.20;95.20
12726;DHT22;6427;49.754;6.106;2022-09-27T16:42:36;13.20;95.10
12726;DHT22;6427;49.754;6.106;2022-09-27T16:45:04;13.30;95.20
12726;DHT22;6427;49.754;6.106;2022-09-27T16:47:31;13.50;95.00
12726;DHT22;6427;49.754;6.106;2022-09-27T16:49:59;13.60;94.70
12726;DHT22;6427;49.754;6.106;2022-09-27T16:52:44;13.30;94.60
12726;DHT22;6427;49.754;6.106;2022-09-27T16:55:13;13.10;95.20
12726;DHT22;6427;49.754;6.106;2022-09-27T16:57:40;12.90;95.80
12726;DHT22;6427;49.754;6.106;2022-09-27T17:00:07;13.00;96.60
12726;DHT22;6427;49.754;6.106;2022-09-27T17:02:35;12.90;96.50
12726;DHT22;6427;49.754;6.106;2022-09-27T17:05:02;12.70;96.80
12726;DHT22;6427;49.754;6.106;2022-09-27T17:07:30;12.60;97.30
12726;DHT22;6427;49.754;6.106;2022-09-27T17:09:58;12.50;97.70
12726;DHT22;6427;49.754;6.106;2022-09-27T17:12:25;12.40;98.10
12726;DHT22;6427;49.754;6.106;2022-09-27T17:14:53;12.30;99.00
12726;DHT22;6427;49.754;6.106;2022-09-27T17:17:22;12.20;99.50
12726;DHT22;6427;49.754;6.106;2022-09-27T17:19:49;12.20;99.50
12726;DHT22;6427;49.754;6.106;2022-09-27T17:22:17;12.10;99.90
12726;DHT22;6427;49.754;6.106;2022-09-27T17:24:44;12.10;99.90
12726;DHT22;6427;49.754;6.106;2022-09-27T17:27:12;12.00;99.90
12726;DHT22;6427;49.754;6.106;2022-09-27T17:29:40;12.00;99.90
12726;DHT22;6427;49.754;6.106;2022-09-27T17:32:07;12.20;99.90
12726;DHT22;6427;49.754;6.106;2022-09-27T17:34:35;12.20;99.90
12726;DHT22;6427;49.754;6.106;2022-09-27T17:37:02;12.10;99.90
12726;DHT22;6427;49.754;6.106;2022-09-27T17:39:30;12.00;99.90
12726;DHT22;6427;49.754;6.106;2022-09-27T17:41:58;12.10;99.30
12726;DHT22;6427;49.754;6.106;2022-09-27T17:44:26;12.10;99.30
12726;DHT22;6427;49.754;6.106;2022-09-27T17:46:53;12.00;99.20
12726;DHT22;6427;49.754;6.106;2022-09-27T17:49:39;11.90;99.30
12726;DHT22;6427;49.754;6.106;2022-09-27T17:52:25;11.80;99.50
12726;DHT22;6427;49.754;6.106;2022-09-27T17:54:52;11.70;99.60
12726;DHT22;6427;49.754;6.106;2022-09-27T17:57:21;11.50;99.80
12726;DHT22;6427;49.754;6.106;2022-09-27T17:59:48;11.60;99.80
12726;DHT22;6427;49.754;6.106;2022-09-27T18:02:16;11.50;99.90
12726;DHT22;6427;49.754;6.106;2022-09-27T18:04:43;11.70;99.90
12726;DHT22;6427;49.754;6.106;2022-09-27T18:07:11;11.80;99.40
12726;DHT22;6427;49.754;6.106;2022-09-27T18:09:38;11.80;99.10